Time;durP1;ratioP1;P1;durP2;ratioP2;P2;SDS_P1;SDS_P2;PMS_P1;PMS_P2;Temp;Humidity;BMP_temperature;BMP_pressure;BME280_temperature;BME280_humidity;BME280_pressure;Samples;Min_cycle;Max_cycle;Signal;HPM_P1;HPM_P2
2022/04/20 00:02:08;;;;;;;6.40;3.60;;;;;;;9.97;49.37;101458.91;5071506;28;20036;-79
2022/04/20 00:04:34;;;;;;;5.63;3.50;;;;;;;9.95;49.15;101466.72;5072532;28;20020;-79
2022/04/20 00:06:59;;;;;;;4.40;3.30;;;;;;;9.92;48.97;101464.13;5071921;28;20096;-79
2022/04/20 00:09:25;;;;;;;5.87;3.40;;;;;;;9.94;49.47;101466.72;5071378;28;20516;-79
2022/04/20 00:11:50;;;;;;;4.83;3.20;;;;;;;9.87;49.51;101465.88;5071987;28;20033;-79
2022/04/20 00:14:15;;;;;;;5.90;3.63;;;;;;;9.84;49.55;101463.28;5072488;28;20025;-79
2022/04/20 00:16:40;;;;;;;6.03;3.70;;;;;;;9.80;49.72;101458.97;5071131;28;20086;-79
2022/04/20 00:19:06;;;;;;;7.17;3.93;;;;;;;9.76;50.04;101457.25;5090920;28;20056;-79
2022/04/20 00:21:34;;;;;;;5.23;3.53;;;;;;;9.72;49.92;101464.19;5092638;28;20076;-79
2022/04/20 00:23:59;;;;;;;6.82;3.72;;;;;;;9.71;50.01;101462.47;5091467;28;20064;-79
2022/04/20 00:26:24;;;;;;;6.63;3.70;;;;;;;9.65;50.27;101465.94;5092314;28;20064;-79
2022/04/20 00:28:50;;;;;;;5.07;3.37;;;;;;;9.67;50.07;101471.97;5090753;28;20029;-79
2022/04/20 00:31:15;;;;;;;5.53;3.33;;;;;;;9.60;50.38;101467.66;5071478;28;20075;-79
2022/04/20 00:33:40;;;;;;;6.50;3.47;;;;;;;9.60;50.59;101470.22;5071705;28;20074;-79
2022/04/20 00:36:06;;;;;;;7.43;3.80;;;;;;;9.54;50.42;101463.34;5072039;28;20036;-79
2022/04/20 00:38:31;;;;;;;7.57;3.70;;;;;;;9.49;50.76;101467.66;5071208;28;20099;-80
2022/04/20 00:40:56;;;;;;;4.50;3.50;;;;;;;9.48;50.50;101465.06;5074149;28;20029;-79
2022/04/20 00:43:22;;;;;;;5.20;3.50;;;;;;;9.40;51.02;101475.44;5075806;28;20032;-79
2022/04/20 00:45:52;;;;;;;5.87;3.50;;;;;;;9.35;51.22;101472.84;5074632;28;20118;-79
2022/04/20 00:48:20;;;;;;;6.88;4.40;;;;;;;9.22;51.27;101471.97;5075552;28;20059;-79
2022/04/20 00:50:48;;;;;;;6.18;3.63;;;;;;;9.23;51.57;101478.03;5075293;28;20024;-79
2022/04/20 00:53:13;;;;;;;7.25;3.85;;;;;;;9.16;51.74;101482.34;5074707;28;20028;-79
2022/04/20 00:55:38;;;;;;;5.33;3.57;;;;;;;9.14;50.96;101478.88;5075164;28;20110;-79
2022/04/20 00:58:04;;;;;;;6.37;3.80;;;;;;;9.10;51.76;101477.16;5074996;28;20033;-79
2022/04/20 01:00:30;;;;;;;7.18;4.05;;;;;;;9.04;51.86;101477.16;5075145;28;20052;-79
2022/04/20 01:02:56;;;;;;;6.10;3.60;;;;;;;9.04;51.42;101480.59;5074949;28;20479;-79
2022/04/20 01:05:22;;;;;;;6.82;3.70;;;;;;;9.03;52.15;101481.44;5074427;28;20056;-79
2022/04/20 01:07:48;;;;;;;7.23;3.90;;;;;;;8.99;52.05;101482.34;5075100;28;20032;-79
2022/04/20 01:10:13;;;;;;;6.05;3.80;;;;;;;8.92;52.49;101480.56;5075280;28;20673;-79
2022/04/20 01:12:43;;;;;;;6.67;4.10;;;;;;;8.90;51.97;101480.59;5082996;28;20055;-79
2022/04/20 01:15:08;;;;;;;7.13;3.85;;;;;;;8.86;52.78;101480.56;5095358;28;20024;-79
2022/04/20 01:17:34;;;;;;;5.50;3.70;;;;;;;8.81;52.72;101484.00;5095333;28;20077;-79
2022/04/20 01:19:59;;;;;;;7.20;3.80;;;;;;;8.79;52.45;101480.53;5093865;28;20512;-79
2022/04/20 01:22:24;;;;;;;5.82;4.00;;;;;;;8.73;53.24;101477.94;5094842;28;20028;-78
2022/04/20 01:24:50;;;;;;;7.73;4.00;;;;;;;8.68;52.97;101484.81;5094768;28;20020;-78
2022/04/20 01:27:15;;;;;;;6.67;3.80;;;;;;;8.64;53.06;101481.38;5094492;28;20016;-79
2022/04/20 01:29:41;;;;;;;7.75;4.20;;;;;;;8.59;53.21;101484.81;5092542;28;20028;-79
2022/04/20 01:32:07;;;;;;;8.43;4.03;;;;;;;8.50;53.94;101483.91;5094950;28;20038;-79
2022/04/20 01:34:33;;;;;;;10.00;4.73;;;;;;;8.44;53.78;101483.00;5094118;28;20020;-79
2022/04/20 01:36:58;;;;;;;7.85;4.18;;;;;;;8.45;53.62;101485.59;5094639;28;20286;-79
2022/04/20 01:39:23;;;;;;;7.00;3.60;;;;;;;8.43;53.33;101483.84;5094891;28;20058;-79
2022/04/20 01:41:49;;;;;;;7.13;4.25;;;;;;;8.35;54.29;101483.81;5091463;28;20039;-79
2022/04/20 01:44:14;;;;;;;7.03;3.90;;;;;;;8.32;54.24;101486.41;5074645;28;20465;-79
2022/04/20 01:46:39;;;;;;;6.13;3.92;;;;;;;8.28;54.18;101489.84;5074053;28;20017;-79
2022/04/20 01:49:04;;;;;;;7.43;4.03;;;;;;;8.23;54.17;101481.16;5073409;28;20035;-79
2022/04/20 01:51:50;;;;;;;7.00;4.10;;;;;;;8.18;54.17;101487.22;5074060;28;20524;-79
2022/04/20 01:54:15;;;;;;;9.48;4.65;;;;;;;8.04;54.95;101487.13;5074426;28;20047;-79
2022/04/20 01:56:41;;;;;;;8.27;4.57;;;;;;;8.03;54.15;101479.34;5073325;28;20025;-79
2022/04/20 01:59:07;;;;;;;7.23;4.30;;;;;;;8.00;54.83;101485.38;5074290;28;20028;-79
2022/04/20 02:04:16;;;;;;;8.15;4.57;;;;;;;7.89;55.07;101482.72;5092376;28;20047;-79
2022/04/20 02:06:41;;;;;;;6.30;3.90;;;;;;;7.89;54.91;101480.13;5093887;28;20036;-79
2022/04/20 02:09:07;;;;;;;8.53;4.40;;;;;;;7.84;55.23;101484.44;5093383;28;20034;-79
2022/04/20 02:11:32;;;;;;;6.28;4.10;;;;;;;7.82;54.77;101483.56;5093861;28;20114;-79
2022/04/20 02:13:58;;;;;;;4.70;3.25;;;;;;;7.83;54.05;101482.69;5093579;28;20085;-79
2022/04/20 02:16:23;;;;;;;7.70;4.20;;;;;;;7.80;54.87;101479.22;5093254;28;20062;-78
2022/04/20 02:18:49;;;;;;;7.70;4.10;;;;;;;7.78;55.33;101480.94;5093173;28;20471;-78
2022/04/20 02:21:14;;;;;;;6.57;3.90;;;;;;;7.76;55.01;101477.47;5094164;28;20102;-79
2022/04/20 02:23:39;;;;;;;7.97;4.38;;;;;;;7.67;55.11;101479.16;5092983;28;20031;-79
2022/04/20 02:26:05;;;;;;;7.00;3.95;;;;;;;7.66;55.29;101484.28;5094032;28;20478;-79
2022/04/20 02:28:30;;;;;;;7.30;3.88;;;;;;;7.58;55.36;101482.53;5093943;28;20030;-79
2022/04/20 02:30:55;;;;;;;7.57;4.50;;;;;;;7.52;55.19;101485.06;5092762;28;20047;-79
2022/04/20 02:33:20;;;;;;;9.07;4.40;;;;;;;7.50;55.98;101483.31;5093554;28;20028;-79
2022/04/20 02:35:46;;;;;;;8.63;4.47;;;;;;;7.45;55.68;101487.59;5093651;28;20028;-79
2022/04/20 02:38:14;;;;;;;8.73;4.80;;;;;;;7.40;56.15;101479.81;5076952;28;20036;-79
2022/04/20 02:40:40;;;;;;;7.97;4.60;;;;;;;7.38;56.25;101481.50;5072988;28;20086;-78
2022/04/20 02:43:06;;;;;;;8.60;4.43;;;;;;;7.34;55.60;101474.56;5073366;28;20027;-79
2022/04/20 02:45:31;;;;;;;8.50;4.50;;;;;;;7.29;56.67;101478.84;5072370;28;20400;-78
2022/04/20 02:47:57;;;;;;;8.83;4.80;;;;;;;7.25;56.37;101485.72;5073240;28;20163;-79
2022/04/20 02:50:22;;;;;;;8.23;4.60;;;;;;;7.27;56.40;101486.56;5073249;28;20388;-79
2022/04/20 02:52:47;;;;;;;9.43;4.68;;;;;;;7.21;56.41;101486.53;5072217;28;20033;-79
2022/04/20 02:55:12;;;;;;;7.75;4.53;;;;;;;7.19;56.29;101491.69;5073243;28;20032;-79
2022/04/20 02:57:38;;;;;;;8.25;4.47;;;;;;;7.16;56.69;101493.34;5073622;28;20622;-79
2022/04/20 03:00:04;;;;;;;8.55;4.60;;;;;;;7.13;56.55;101501.94;5072651;28;20036;-79
2022/04/20 03:02:31;;;;;;;7.47;4.20;;;;;;;7.12;57.07;101497.63;5072485;28;20032;-79
2022/04/20 03:04:56;;;;;;;11.23;4.95;;;;;;;7.05;56.43;101499.28;5072021;28;20511;-79
2022/04/20 03:07:22;;;;;;;9.83;4.80;;;;;;;7.08;56.32;101495.88;5080426;28;20032;-79
2022/04/20 03:09:50;;;;;;;8.40;4.45;;;;;;;7.06;56.93;101500.16;5092890;28;20569;-78
2022/04/20 03:12:15;;;;;;;8.90;4.68;;;;;;;7.04;56.93;101496.69;5092330;28;20444;-78
2022/04/20 03:14:40;;;;;;;8.17;4.43;;;;;;;7.02;56.95;101499.28;5092695;28;20051;-78
2022/04/20 03:17:06;;;;;;;8.25;4.60;;;;;;;6.99;56.48;101496.66;5093407;28;20027;-79
2022/04/20 03:19:31;;;;;;;9.93;4.90;;;;;;;6.98;56.42;101501.81;5092269;28;20119;-79
2022/04/20 03:21:57;;;;;;;9.00;4.57;;;;;;;6.95;56.49;101500.91;5074749;28;20059;-79
2022/04/20 03:24:22;;;;;;;8.57;4.90;;;;;;;6.93;56.94;101510.34;5093251;28;20482;-79
2022/04/20 03:26:50;;;;;;;8.48;4.57;;;;;;;6.90;56.37;101500.00;5092051;28;20031;-79
2022/04/20 03:29:16;;;;;;;8.80;4.30;;;;;;;6.90;56.82;101507.72;5092766;28;20073;-79
2022/04/20 03:31:41;;;;;;;6.82;4.13;;;;;;;6.91;56.51;101511.19;5087784;28;20059;-78
2022/04/20 03:34:07;;;;;;;8.10;4.32;;;;;;;6.92;56.43;101506.03;5072114;28;20110;-79
2022/04/20 03:36:33;;;;;;;8.38;4.72;;;;;;;6.89;57.00;101506.00;5072751;28;20039;-79
2022/04/20 03:38:59;;;;;;;7.10;4.30;;;;;;;6.89;57.33;101512.88;5072295;28;20028;-79
2022/04/20 03:41:24;;;;;;;6.93;4.10;;;;;;;6.88;56.93;101519.75;5071756;28;20048;-79
2022/04/20 03:43:50;;;;;;;9.10;4.43;;;;;;;6.81;57.68;101517.97;5072185;28;20476;-79
2022/04/20 03:46:15;;;;;;;9.90;5.03;;;;;;;6.77;56.92;101516.19;5072579;28;20044;-79
2022/04/20 03:48:45;;;;;;;7.45;4.15;;;;;;;6.78;57.41;101521.38;5071675;28;20029;-78
2022/04/20 03:51:13;;;;;;;7.47;4.50;;;;;;;6.77;57.29;101523.91;5072628;28;20024;-79
2022/04/20 03:53:39;;;;;;;7.90;4.50;;;;;;;6.72;57.20;101515.28;5072326;28;20016;-79
2022/04/20 03:56:04;;;;;;;7.80;4.40;;;;;;;6.73;57.23;101515.28;5071432;28;20024;-79
2022/04/20 03:58:30;;;;;;;12.15;4.93;;;;;;;6.68;57.54;101516.97;5071558;28;20028;-79
2022/04/20 04:00:55;;;;;;;9.02;4.68;;;;;;;6.70;57.69;101522.13;5071944;28;20040;-79
2022/04/20 04:03:20;;;;;;;9.83;4.60;;;;;;;6.62;57.62;101520.34;5072009;28;20071;-79
2022/04/20 04:05:45;;;;;;;8.93;4.70;;;;;;;6.63;57.94;101527.22;5072057;28;20020;-79
2022/04/20 04:08:11;;;;;;;9.83;4.57;;;;;;;6.62;57.81;101528.06;5071747;28;20047;-79
2022/04/20 04:10:36;;;;;;;9.65;4.95;;;;;;;6.58;57.81;101521.13;5072177;28;20035;-78
2022/04/20 04:13:01;;;;;;;7.30;4.07;;;;;;;6.59;57.88;101529.72;5072069;28;20032;-79
2022/04/20 04:15:27;;;;;;;8.88;4.55;;;;;;;6.56;58.29;101532.28;5075040;28;20020;-78
2022/04/20 04:17:58;;;;;;;7.28;4.38;;;;;;;6.55;57.93;101531.41;5075975;28;20461;-79
2022/04/20 04:20:27;;;;;;;7.40;4.20;;;;;;;6.54;57.77;101527.09;5075918;28;20048;-78
2022/04/20 04:22:53;;;;;;;9.93;4.65;;;;;;;6.53;57.79;101530.50;5074988;28;20028;-79
2022/04/20 04:25:18;;;;;;;9.67;4.73;;;;;;;6.49;57.93;101529.63;5076053;28;20029;-79
2022/04/20 04:27:44;;;;;;;6.75;4.13;;;;;;;6.51;58.12;101528.78;5091457;28;20101;-79
2022/04/20 04:30:10;;;;;;;5.53;3.65;;;;;;;6.53;57.70;101529.66;5095776;28;20115;-79
2022/04/20 04:32:39;;;;;;;8.93;4.03;;;;;;;6.50;58.31;101533.09;5096508;28;20259;-78
2022/04/20 04:35:08;;;;;;;8.90;4.07;;;;;;;6.52;57.14;101531.38;5096052;28;20078;-78
2022/04/20 04:37:34;;;;;;;7.43;4.05;;;;;;;6.51;58.80;101542.56;5095376;28;20395;-79
2022/04/20 04:40:00;;;;;;;6.00;3.70;;;;;;;6.54;57.30;101539.13;5095341;28;20040;-78
2022/04/20 04:42:26;;;;;;;6.97;3.90;;;;;;;6.52;57.39;101545.97;5096065;28;20034;-79
2022/04/20 04:44:51;;;;;;;7.07;3.50;;;;;;;6.53;57.20;101546.00;5094928;28;20282;-79
2022/04/20 04:50:00;;;;;;;4.60;3.30;;;;;;;6.50;58.25;101558.88;5095699;28;20133;-79
2022/04/20 04:52:27;;;;;;;6.25;4.07;;;;;;;6.47;57.33;101561.41;5079196;28;20491;-79
2022/04/20 04:54:53;;;;;;;7.15;3.83;;;;;;;6.48;57.50;101555.41;5075324;28;20032;-79
2022/04/20 04:57:18;;;;;;;6.10;3.50;;;;;;;6.47;57.86;101559.66;5074550;28;20036;-78
2022/04/20 04:59:43;;;;;;;6.60;4.00;;;;;;;6.44;58.99;101561.34;5080018;28;20022;-79
2022/04/20 05:02:09;;;;;;;8.32;4.35;;;;;;;6.41;59.05;101563.91;5094987;28;20474;-79
2022/04/20 05:04:36;;;;;;;8.98;4.80;;;;;;;6.38;58.23;101566.44;5082365;28;20823;-78
2022/04/20 05:07:03;;;;;;;9.13;4.72;;;;;;;6.35;58.55;101567.28;5115695;28;20098;-80
2022/04/20 05:09:28;;;;;;;6.53;3.90;;;;;;;6.37;58.88;101577.59;5107577;28;20051;-80
2022/04/20 05:11:54;;;;;;;6.55;3.80;;;;;;;6.38;58.35;101574.16;5094572;28;20035;-80
2022/04/20 05:14:20;;;;;;;7.35;4.28;;;;;;;6.34;59.91;101575.84;5095391;28;20033;-77
2022/04/20 05:16:46;;;;;;;6.75;4.20;;;;;;;6.32;58.83;101582.69;5095107;28;20056;-78
2022/04/20 05:19:11;;;;;;;9.63;4.60;;;;;;;6.30;59.81;101582.69;5094372;28;20444;-77
2022/04/20 05:21:36;;;;;;;9.18;4.88;;;;;;;6.27;60.04;101580.03;5103028;28;20028;-77
2022/04/20 05:24:02;;;;;;;9.55;4.97;;;;;;;6.30;60.01;101579.22;5115043;28;20036;-77
2022/04/20 05:26:27;;;;;;;10.15;5.30;;;;;;;6.24;60.03;101576.56;5114401;28;20055;-78
2022/04/20 05:28:56;;;;;;;12.25;5.80;;;;;;;6.27;59.82;101581.75;5115352;28;20463;-77
2022/04/20 05:31:22;;;;;;;11.40;5.55;;;;;;;6.29;59.77;101580.94;5116638;28;20024;-77
2022/04/20 05:33:47;;;;;;;12.15;5.55;;;;;;;6.33;59.47;101581.84;5114538;28;20579;-78
2022/04/20 05:36:12;;;;;;;10.90;5.68;;;;;;;6.34;60.05;101581.84;5115311;28;20028;-78
2022/04/20 05:41:39;;;;;;;12.82;5.80;;;;;;;6.43;59.70;101582.81;5114519;28;20051;-81
2022/04/20 05:44:04;;;;;;;10.45;5.35;;;;;;;6.49;59.85;101585.50;5115245;28;20106;-79
2022/04/20 05:46:31;;;;;;;9.77;5.15;;;;;;;6.55;59.63;101583.00;5114310;28;20116;-80
2022/04/20 05:48:57;;;;;;;;;;;;;;;6.63;59.51;101580.50;5115054;28;20032;-80
2022/04/20 05:51:22;;;;;;;11.70;5.43;;;;;;;6.67;59.65;101581.41;5115073;28;20260;-80
2022/04/20 05:53:47;;;;;;;9.38;5.03;;;;;;;6.71;59.31;101586.63;5114166;28;20712;-80
2022/04/20 05:56:13;;;;;;;9.55;5.07;;;;;;;6.79;59.22;101579.00;5114978;28;20047;-80
2022/04/20 05:58:38;;;;;;;11.93;5.90;;;;;;;6.81;58.43;101582.47;5102616;28;20107;-81
2022/04/20 06:01:03;;;;;;;10.18;5.50;;;;;;;6.88;59.54;101593.72;5088734;28;20130;-78
2022/04/20 06:03:28;;;;;;;11.55;5.78;;;;;;;6.94;59.33;101586.03;5112088;28;20483;-77
2022/04/20 06:05:53;;;;;;;10.87;5.77;;;;;;;7.00;59.00;101583.56;5110254;28;20016;-85
2022/04/20 06:08:19;;;;;;;10.65;5.63;;;;;;;7.07;58.90;101582.75;5093847;28;20048;-83
2022/04/20 06:10:46;;;;;;;11.70;5.53;;;;;;;7.16;58.64;101587.16;5092800;28;20032;-77
2022/04/20 06:13:12;;;;;;;10.32;5.20;;;;;;;7.22;58.49;101582.06;5090369;28;20016;-79
2022/04/20 06:15:37;;;;;;;9.20;5.13;;;;;;;7.30;58.60;101584.72;5092946;28;20396;-80
2022/04/20 06:18:03;;;;;;;9.03;5.20;;;;;;;7.38;57.97;101577.06;5081858;28;20068;-80
2022/04/20 06:20:28;;;;;;;11.67;5.80;;;;;;;7.43;58.17;101583.13;5088298;28;20450;-79
2022/04/20 06:22:53;;;;;;;10.67;5.03;;;;;;;7.51;58.23;101583.19;5089103;28;20035;-79
2022/04/20 06:25:21;;;;;;;8.75;4.72;;;;;;;7.58;57.79;101585.00;5094065;28;20555;-79
2022/04/20 06:27:46;;;;;;;10.90;5.07;;;;;;;7.65;57.89;101581.63;5078862;28;20081;-79
2022/04/20 06:30:12;;;;;;;10.23;5.30;;;;;;;7.72;57.06;101596.31;5072922;28;20476;-79
2022/04/20 06:32:37;;;;;;;7.90;4.83;;;;;;;7.79;57.14;101592.06;5081076;28;20054;-78
2022/04/20 06:35:03;;;;;;;10.13;5.27;;;;;;;7.88;56.85;101589.53;5073935;28;20389;-77
2022/04/20 06:37:28;;;;;;;10.63;5.40;;;;;;;7.95;56.66;101595.63;5081817;28;20029;-80
2022/04/20 06:39:56;;;;;;;11.05;4.82;;;;;;;8.02;56.80;101597.41;5091739;28;20034;-82
2022/04/20 06:42:22;;;;;;;9.95;5.40;;;;;;;8.09;56.04;101593.16;5091821;28;20157;-78
2022/04/20 06:44:48;;;;;;;9.67;5.37;;;;;;;8.17;56.09;101598.38;5092454;28;20091;-88
2022/04/20 06:47:18;;;;;;;13.63;5.50;;;;;;;8.23;56.26;101593.25;5092008;28;20028;-83
2022/04/20 06:49:48;;;;;;;10.32;5.25;;;;;;;8.34;55.66;101599.34;5082972;28;20048;-83
2022/04/20 07:00:28;;;;;;;9.25;5.05;;;;;;;8.74;56.05;101587.50;5113549;28;20040;-84
2022/04/20 07:03:00;;;;;;;10.57;5.13;;;;;;;8.88;54.03;101585.84;5088782;28;20047;-83
2022/04/20 07:05:26;;;;;;;10.30;5.47;;;;;;;9.78;54.52;101588.59;5080135;28;20032;-83
2022/04/20 07:07:54;;;;;;;10.07;5.07;;;;;;;12.32;47.67;101589.94;5111938;28;20031;-85
2022/04/20 07:10:34;;;;;;;10.45;4.90;;;;;;;14.46;41.24;101586.75;5107400;28;20020;-85
2022/04/20 07:13:12;;;;;;;7.75;4.55;;;;;;;16.09;39.42;101583.09;5091875;28;20028;-84
2022/04/20 07:15:43;;;;;;;8.70;5.18;;;;;;;16.66;38.00;101591.16;5093151;28;20028;-85
2022/04/20 07:18:09;;;;;;;8.02;4.40;;;;;;;16.54;39.19;101587.09;5092549;28;20022;-84
2022/04/20 07:20:34;;;;;;;6.70;3.90;;;;;;;16.27;40.78;101594.81;5092657;28;20123;-85
2022/04/20 07:22:59;;;;;;;6.30;3.87;;;;;;;15.92;40.62;101588.78;5102761;28;20016;-83
2022/04/20 07:25:31;;;;;;;4.83;3.40;;;;;;;15.27;42.30;101587.69;5112563;28;20026;-84
2022/04/20 07:28:06;;;;;;;5.78;3.10;;;;;;;14.57;43.82;101596.97;5113003;28;20038;-89
2022/04/20 07:30:32;;;;;;;8.55;4.40;;;;;;;13.70;41.42;101595.94;5111514;28;20039;-85
2022/04/20 07:32:57;;;;;;;8.40;4.68;;;;;;;12.85;44.42;101585.84;5071688;28;20429;-85
2022/04/20 07:35:23;;;;;;;9.50;4.87;;;;;;;12.16;45.04;101603.97;5072913;28;20112;-84
2022/04/20 07:37:57;;;;;;;9.57;4.57;;;;;;;11.73;46.29;101602.56;5072787;28;20020;-85
2022/04/20 07:40:23;;;;;;;9.25;4.90;;;;;;;11.35;47.39;101603.72;5071992;28;20021;-85
2022/04/20 07:42:54;;;;;;;8.88;4.50;;;;;;;11.23;47.44;101592.53;5072385;28;20111;-87
2022/04/20 07:45:19;;;;;;;9.57;5.15;;;;;;;10.99;48.11;101600.44;5072511;28;20055;-84
2022/04/20 07:47:44;;;;;;;11.40;5.40;;;;;;;11.01;48.40;101609.94;5071591;28;20026;-84
2022/04/20 07:50:18;;;;;;;8.13;4.50;;;;;;;11.02;47.83;101611.69;5075935;28;20107;-84
2022/04/20 07:52:46;;;;;;;9.40;4.80;;;;;;;11.02;48.59;101600.44;5076427;28;20032;-84
2022/04/20 07:55:17;;;;;;;7.68;4.38;;;;;;;11.20;48.58;101613.31;5075938;28;20077;-83
2022/04/20 07:57:43;;;;;;;7.30;4.32;;;;;;;11.31;47.88;101607.19;5095494;28;20028;-84
2022/04/20 08:00:10;;;;;;;10.50;4.70;;;;;;;11.44;48.30;101611.44;5096000;28;20024;-84
2022/04/20 08:02:35;;;;;;;;;;;;;;;11.53;48.39;101606.19;5097161;28;20388;-85
2022/04/20 08:05:01;;;;;;;8.67;4.87;;;;;;;11.56;47.61;101603.56;5092886;28;19912;-84
2022/04/20 08:07:26;;;;;;;8.57;4.83;;;;;;;11.60;47.48;101614.81;5096187;28;20020;-84
2022/04/20 08:09:52;;;;;;;7.70;4.40;;;;;;;11.67;47.43;101600.88;5096526;28;20521;-82
2022/04/20 08:12:18;;;;;;;7.50;3.73;;;;;;;11.92;47.74;101610.25;5096426;28;20529;-84
2022/04/20 08:14:43;;;;;;;8.73;4.50;;;;;;;12.03;46.32;101609.28;5095474;28;20081;-85
2022/04/20 08:17:09;;;;;;;8.77;4.67;;;;;;;12.10;45.46;101614.44;5096782;28;20016;-83
2022/04/20 08:19:34;;;;;;;7.83;4.70;;;;;;;12.12;45.36;101620.47;5096549;28;20044;-83
2022/04/20 08:22:00;;;;;;;6.77;4.10;;;;;;;12.23;46.54;101615.19;5093661;28;20085;-84
2022/04/20 08:24:31;;;;;;;8.63;4.30;;;;;;;12.39;44.78;101615.88;5096250;28;20028;-84
2022/04/20 08:26:56;;;;;;;7.90;4.50;;;;;;;12.44;45.45;101612.34;5095781;28;20040;-83
2022/04/20 08:29:21;;;;;;;7.53;4.30;;;;;;;12.59;44.65;101616.53;5095413;28;20137;-86
2022/04/20 08:31:47;;;;;;;10.40;4.83;;;;;;;12.61;42.96;101614.78;5096133;28;20024;-84
2022/04/20 08:34:12;;;;;;;9.80;4.40;;;;;;;12.64;43.92;101616.47;5096288;28;20051;-83
2022/04/20 08:36:37;;;;;;;7.43;4.20;;;;;;;12.75;44.16;101618.97;5079225;28;20020;-84
2022/04/20 08:39:02;;;;;;;9.27;4.80;;;;;;;12.81;42.63;101616.28;5075604;28;20509;-82
2022/04/20 08:41:28;;;;;;;6.73;4.10;;;;;;;12.96;43.96;101612.59;5075542;28;20038;-85
2022/04/20 08:43:55;;;;;;;7.00;4.07;;;;;;;13.16;42.21;101625.38;5074652;28;20381;-82
2022/04/20 08:46:23;;;;;;;8.75;4.60;;;;;;;13.25;41.89;101619.19;5075577;28;20389;-82
2022/04/20 08:48:50;;;;;;;7.32;4.10;;;;;;;13.38;43.30;101619.88;5075028;28;20031;-82
2022/04/20 08:51:17;;;;;;;6.28;3.83;;;;;;;13.52;43.33;101606.66;5074677;28;20504;-80
2022/04/20 08:53:42;;;;;;;6.00;3.83;;;;;;;13.75;40.97;101616.72;5074941;28;20353;-84
2022/04/20 08:58:53;;;;;;;8.48;4.80;;;;;;;13.98;40.03;101608.50;5075365;28;20507;-82
2022/04/20 09:01:19;;;;;;;8.48;4.55;;;;;;;13.90;40.00;101599.97;5074035;28;20480;-83
2022/04/20 09:03:46;;;;;;;7.50;4.30;;;;;;;14.02;41.63;101609.31;5074232;28;20032;-85
2022/04/20 09:06:13;;;;;;;7.25;4.30;;;;;;;14.12;41.54;101605.69;5075049;28;20028;-84
2022/04/20 09:08:38;;;;;;;7.43;4.30;;;;;;;14.20;39.30;101616.84;5075030;28;20093;-83
2022/04/20 09:11:04;;;;;;;9.70;4.60;;;;;;;14.09;39.61;101607.44;5074087;28;20452;-81
2022/04/20 09:13:33;;;;;;;7.43;4.40;;;;;;;14.15;40.86;101599.53;5074974;28;20035;-82
2022/04/20 09:16:10;;;;;;;8.35;4.60;;;;;;;14.19;38.67;101599.44;5075221;28;20029;-83
2022/04/20 09:18:38;;;;;;;9.48;5.05;;;;;;;14.24;38.51;101596.75;5074334;28;20033;-83
2022/04/20 09:21:07;;;;;;;8.57;4.80;;;;;;;14.37;38.61;101597.38;5075970;28;20044;-84
2022/04/20 09:23:34;;;;;;;9.48;5.00;;;;;;;14.15;38.51;101599.53;5075061;28;20024;-82
2022/04/20 09:26:16;;;;;;;8.60;4.63;;;;;;;14.27;38.51;101590.59;5073805;28;20465;-82
2022/04/20 09:29:01;;;;;;;11.48;4.70;;;;;;;14.47;38.41;101606.75;5074159;28;20552;-83
2022/04/20 09:31:46;;;;;;;8.43;4.63;;;;;;;14.56;38.36;101608.31;5074522;28;20040;-83
2022/04/20 09:34:32;;;;;;;8.25;4.35;;;;;;;14.75;39.00;101601.00;5075035;28;20032;-81
2022/04/20 09:37:14;;;;;;;6.72;4.05;;;;;;;14.98;38.52;101584.81;5074636;28;20037;-82
2022/04/20 09:39:55;;;;;;;6.57;3.60;;;;;;;15.21;37.44;101580.84;5073530;28;20036;-83
2022/04/20 09:42:26;;;;;;;6.30;3.40;;;;;;;15.38;39.26;101574.38;5074356;28;20036;-82
2022/04/20 09:44:59;;;;;;;8.90;4.40;;;;;;;15.29;36.83;101580.66;5074336;28;20036;-83
2022/04/20 09:50:29;;;;;;;6.93;4.00;;;;;;;15.29;38.68;101573.69;5074874;28;20044;-81
2022/04/20 09:52:57;;;;;;;6.95;4.07;;;;;;;15.40;37.94;101572.59;5069268;28;20098;-79
2022/04/20 09:55:31;;;;;;;9.52;4.20;;;;;;;15.46;37.72;101569.81;5074585;28;20020;-79
2022/04/20 09:58:19;;;;;;;7.88;3.80;;;;;;;15.67;37.26;101571.03;5093602;28;20115;-83
2022/04/20 10:00:46;;;;;;;6.82;3.97;;;;;;;15.71;36.17;101574.44;5093399;28;20031;-79
2022/04/20 10:03:24;;;;;;;6.57;3.90;;;;;;;15.47;35.02;101576.75;5094524;28;20028;-79
2022/04/20 10:05:49;;;;;;;6.18;3.90;;;;;;;15.52;36.18;101572.28;5094266;28;20095;-80
2022/04/20 10:08:14;;;;;;;6.63;3.50;;;;;;;15.67;36.14;101565.81;5093773;28;20553;-79
2022/04/20 10:10:40;;;;;;;6.17;3.60;;;;;;;15.87;38.24;101564.47;5092572;28;20028;-83
2022/04/20 10:13:10;;;;;;;7.20;3.90;;;;;;;15.83;35.37;101561.03;5094038;28;20038;-80
2022/04/20 10:18:25;;;;;;;6.47;3.53;;;;;;;15.79;36.58;101556.78;5094529;28;20429;-79
2022/04/20 10:20:55;;;;;;;5.07;3.50;;;;;;;15.90;35.18;101543.44;5092534;28;20579;-79
2022/04/20 10:23:22;;;;;;;5.00;3.53;;;;;;;15.68;35.59;101561.41;5093978;28;20035;-79
2022/04/20 10:25:53;;;;;;;5.03;3.55;;;;;;;15.61;35.86;101542.41;5091841;28;20475;-79
2022/04/20 10:28:48;;;;;;;8.40;3.72;;;;;;;15.57;35.31;101546.00;5093385;28;20028;-79
2022/04/20 10:31:20;;;;;;;4.57;3.33;;;;;;;15.80;35.66;101537.56;5094091;28;20038;-81
2022/04/20 10:33:46;;;;;;;3.90;3.00;;;;;;;16.01;35.03;101546.66;5093593;28;20032;-84
2022/04/20 10:36:16;;;;;;;5.50;3.10;;;;;;;15.93;33.88;101540.72;5091266;28;20024;-82
2022/04/20 10:38:43;;;;;;;4.68;3.53;;;;;;;15.38;35.01;101548.22;5093236;28;20471;-82
2022/04/20 10:41:18;;;;;;;6.72;3.42;;;;;;;15.55;34.98;101546.03;5093475;28;20536;-83
2022/04/20 10:44:02;;;;;;;5.00;3.00;;;;;;;15.77;35.35;101540.25;5090864;28;20055;-81
2022/04/20 10:46:30;;;;;;;5.10;3.20;;;;;;;16.05;34.78;101536.94;5093491;28;20103;-83
2022/04/20 10:48:58;;;;;;;4.88;3.00;;;;;;;16.34;34.43;101546.63;5092408;28;20024;-82
2022/04/20 10:51:30;;;;;;;3.72;3.08;;;;;;;16.03;33.91;101542.22;5093626;28;20040;-83
2022/04/20 10:54:24;;;;;;;5.45;3.38;;;;;;;16.18;34.10;101537.47;5093302;28;20032;-83
2022/04/20 10:57:09;;;;;;;4.85;2.90;;;;;;;16.36;34.85;101521.25;5090652;28;20028;-83
2022/04/20 10:59:35;;;;;;;4.55;3.20;;;;;;;16.60;34.40;101531.03;5088016;28;20092;-83
2022/04/20 11:02:04;;;;;;;6.72;3.00;;;;;;;16.77;35.21;101527.91;5092811;28;20028;-83
2022/04/20 11:04:43;;;;;;;6.75;3.70;;;;;;;16.49;33.89;101520.88;5092521;28;20043;-83
2022/04/20 11:07:08;;;;;;;5.55;3.10;;;;;;;16.78;35.15;101525.22;5093319;28;20099;-83
2022/04/20 11:09:43;;;;;;;3.17;2.77;;;;;;;17.02;35.30;101522.78;5093059;28;20127;-83
2022/04/20 11:21:07;;;;;;;5.53;3.30;;;;;;;17.61;34.42;101520.88;5091138;28;20046;-83
2022/04/20 11:23:59;;;;;;;6.40;4.13;;;;;;;17.07;33.77;101514.78;5077834;28;20119;-84
2022/04/20 11:26:41;;;;;;;5.32;3.00;;;;;;;17.17;35.98;101504.84;5071954;28;20024;-82
2022/04/20 11:29:18;;;;;;;4.20;2.65;;;;;;;17.58;34.50;101487.72;5072729;28;20032;-83
2022/04/20 11:31:48;;;;;;;4.03;3.05;;;;;;;17.93;34.49;101497.06;5071693;28;20020;-82
2022/04/20 11:34:16;;;;;;;4.25;3.30;;;;;;;17.99;33.42;101492.47;5072642;28;20036;-82
2022/04/20 11:36:44;;;;;;;8.30;3.53;;;;;;;17.75;33.63;101497.66;5072393;28;20097;-83
2022/04/20 11:39:11;;;;;;;5.85;3.22;;;;;;;17.80;33.31;101489.59;5072231;28;20042;-76
2022/04/20 11:41:36;;;;;;;3.28;2.78;;;;;;;18.08;34.12;101490.41;5072337;28;20434;-80
2022/04/20 11:44:02;;;;;;;2.90;2.60;;;;;;;18.27;32.99;101478.31;5072676;28;20025;-79
2022/04/20 11:46:27;;;;;;;2.97;2.50;;;;;;;18.35;33.62;101484.13;5071584;28;20024;-78
2022/04/20 11:48:57;;;;;;;4.17;2.80;;;;;;;18.41;33.05;101483.03;5071499;28;20032;-78
2022/04/20 11:51:27;;;;;;;4.57;3.00;;;;;;;18.14;32.36;101475.28;5073264;28;20440;-83
2022/04/20 11:53:53;;;;;;;5.63;3.00;;;;;;;18.05;32.79;101481.72;5071098;28;20024;-80
2022/04/20 11:56:35;;;;;;;5.70;3.28;;;;;;;17.86;32.49;101471.00;5071526;28;20025;-79
2022/04/20 11:59:02;;;;;;;5.82;3.20;;;;;;;17.92;32.11;101477.78;5071934;28;20031;-84
2022/04/20 12:01:30;;;;;;;7.53;3.80;;;;;;;17.64;32.52;101473.53;5071448;28;20032;-82
2022/04/20 12:03:55;;;;;;;4.30;2.97;;;;;;;17.82;32.66;101471.16;5072141;28;20020;-85
2022/04/20 12:06:24;;;;;;;5.23;3.20;;;;;;;17.91;31.72;101469.06;5071547;28;20491;-86